Observation data for Morton on 01/20/2019      Previous  Date  Next       Current Mesonet Observations  Soil Data  Daily Summary Page  Observations in Plain Language
KMNS 200600Z 18006KT M00/M05 A3027 RMK A01 T10031054  RH  069%=      5-min Rain = 0
KMNS 200605Z 19006KT M01/M06 A3027 RMK A01 T10061055  RH  070%=      5-min Rain = 0
KMNS 200610Z 19006KT M01/M05 A3027 RMK A01 T10071054  RH  071%=      5-min Rain = 0
KMNS 200615Z 18006KT M01/M05 A3027 RMK A01 T10061051  RH  072%=      5-min Rain = 0
KMNS 200620Z 19006KT M00/M05 A3027 RMK A01 T10031050  RH  071%=      5-min Rain = 0
KMNS 200625Z 19006KT M01/M05 A3027 RMK A01 T10051052  RH  071%=      5-min Rain = 0
KMNS 200630Z 19006KT M01/M05 A3027 RMK A01 T10101054  RH  072%=      5-min Rain = 0
KMNS 200635Z 19006KT M01/M05 A3027 RMK A01 T10111054  RH  073%=      5-min Rain = 0
KMNS 200640Z 19006KT M01/M05 A3027 RMK A01 T10121053  RH  074%=      5-min Rain = 0
KMNS 200645Z 18006KT M01/M05 A3027 RMK A01 T10101052  RH  074%=      5-min Rain = 0
KMNS 200650Z 19007KT M01/M05 A3027 RMK A01 T10091051  RH  074%=      5-min Rain = 0
KMNS 200655Z 19007KT M01/M05 A3027 RMK A01 T10091051  RH  074%=      5-min Rain = 0
KMNS 200700Z 20007KT M01/M05 A3027 RMK A01 T10121052  RH  074%=      5-min Rain = 0
KMNS 200705Z 19008KT M01/M05 A3027 RMK A01 T10111050  RH  075%=      5-min Rain = 0
KMNS 200710Z 19008KT M01/M05 A3027 RMK A01 T10111050  RH  075%=      5-min Rain = 0
KMNS 200715Z 19008KT M01/M05 A3027 RMK A01 T10101049  RH  075%=      5-min Rain = 0
KMNS 200720Z 18009KT M01/M05 A3026 RMK A01 T10051046  RH  074%=      5-min Rain = 0
KMNS 200725Z 18010KT 01/M04 A3026 RMK A01 T00051044  RH  070%=      5-min Rain = 0
KMNS 200730Z 18009KT 01/M05 A3026 RMK A01 T00071045  RH  068%=      5-min Rain = 0
KMNS 200735Z 18008KT 01/M05 A3026 RMK A01 T00051046  RH  069%=      5-min Rain = 0
KMNS 200740Z 18009KT 01/M05 A3025 RMK A01 T00051047  RH  068%=      5-min Rain = 0
KMNS 200745Z 18009KT 01/M05 A3025 RMK A01 T00071047  RH  068%=      5-min Rain = 0
KMNS 200750Z 18010KT 01/M05 A3025 RMK A01 T00091046  RH  067%=      5-min Rain = 0
KMNS 200755Z 18010KT 01/M05 A3025 RMK A01 T00091047  RH  066%=      5-min Rain = 0
KMNS 200800Z 19010KT 01/M05 A3025 RMK A01 T00061048  RH  068%=      5-min Rain = 0
KMNS 200805Z 19009KT 00/M05 A3025 RMK A01 T00031048  RH  069%=      5-min Rain = 0
KMNS 200810Z 19010KT 00/M05 A3025 RMK A01 T00021048  RH  069%=      5-min Rain = 0
KMNS 200815Z 19010KT 00/M05 A3024 RMK A01 T00031048  RH  069%=      5-min Rain = 0
KMNS 200820Z 19011KT 01/M05 A3024 RMK A01 T00051047  RH  068%=      5-min Rain = 0
KMNS 200825Z 19010KT 01/M05 A3025 RMK A01 T00051047  RH  068%=      5-min Rain = 0
KMNS 200830Z 19010KT 00/M05 A3024 RMK A01 T00041048  RH  068%=      5-min Rain = 0
KMNS 200835Z 19010KT 00/M05 A3024 RMK A01 T00031048  RH  069%=      5-min Rain = 0
KMNS 200840Z 18010KT 01/M05 A3024 RMK A01 T00051047  RH  068%=      5-min Rain = 0
KMNS 200845Z 18010KT 01/M05 A3024 RMK A01 T00081046  RH  067%=      5-min Rain = 0
KMNS 200850Z 18010KT 01/M05 A3024 RMK A01 T00101045  RH  067%=      5-min Rain = 0
KMNS 200855Z 18009KT 01/M05 A3024 RMK A01 T00121045  RH  066%=      5-min Rain = 0
KMNS 200900Z 18010KT 01/M05 A3024 RMK A01 T00131045  RH  065%=      5-min Rain = 0
KMNS 200905Z 19010KT 01/M05 A3025 RMK A01 T00121045  RH  066%=      5-min Rain = 0
KMNS 200910Z 18010KT 01/M05 A3025 RMK A01 T00111045  RH  066%=      5-min Rain = 0
KMNS 200915Z 18009KT 01/M05 A3025 RMK A01 T00121045  RH  066%=      5-min Rain = 0
KMNS 200920Z 18009KT 01/M05 A3025 RMK A01 T00111045  RH  066%=      5-min Rain = 0
KMNS 200925Z 18010KT 01/M05 A3024 RMK A01 T00121045  RH  066%=      5-min Rain = 0
KMNS 200930Z 18010KT 01/M05 A3024 RMK A01 T00121046  RH  065%=      5-min Rain = 0
KMNS 200935Z 18010KT 01/M05 A3024 RMK A01 T00121046  RH  065%=      5-min Rain = 0
KMNS 200940Z 18009KT 01/M05 A3024 RMK A01 T00121046  RH  065%=      5-min Rain = 0
KMNS 200945Z 18009KT 01/M05 A3024 RMK A01 T00101046  RH  066%=      5-min Rain = 0
KMNS 200950Z 19010KT 01/M05 A3024 RMK A01 T00121046  RH  066%=      5-min Rain = 0
KMNS 200955Z 18010KT 01/M05 A3024 RMK A01 T00111045  RH  066%=      5-min Rain = 0
KMNS 201000Z 18011KT 01/M05 A3024 RMK A01 T00131045  RH  065%=      5-min Rain = 0
KMNS 201005Z 18010KT 01/M05 A3024 RMK A01 T00121046  RH  066%=      5-min Rain = 0
KMNS 201010Z 18009KT 01/M05 A3024 RMK A01 T00091047  RH  066%=      5-min Rain = 0
KMNS 201015Z 18009KT 01/M05 A3024 RMK A01 T00081047  RH  067%=      5-min Rain = 0
KMNS 201020Z 17009KT 01/M05 A3024 RMK A01 T00071047  RH  067%=      5-min Rain = 0
KMNS 201025Z 18009KT 01/M05 A3023 RMK A01 T00051047  RH  068%=      5-min Rain = 0
KMNS 201030Z 18008KT 00/M05 A3023 RMK A01 T00041047  RH  069%=      5-min Rain = 0
KMNS 201035Z 18008KT 00/M05 A3023 RMK A01 T00031047  RH  069%=      5-min Rain = 0
KMNS 201040Z 19008KT 00/05 A3023 RMK A01 T00000-48  RH  070%=      5-min Rain = 0
KMNS 201045Z 18008KT M00/M05 A3024 RMK A01 T10021048  RH  071%=      5-min Rain = 0
KMNS 201050Z 18008KT M00/M05 A3023 RMK A01 T10021047  RH  072%=      5-min Rain = 0
KMNS 201055Z 18009KT M00/M05 A3024 RMK A01 T10021047  RH  072%=      5-min Rain = 0
KMNS 201100Z 18008KT M00/M05 A3024 RMK A01 T10041048  RH  072%=      5-min Rain = 0
KMNS 201105Z 18007KT M01/M05 A3023 RMK A01 T10051048  RH  073%=      5-min Rain = 0
KMNS 201110Z 18008KT M00/M05 A3023 RMK A01 T10041048  RH  073%=      5-min Rain = 0
KMNS 201115Z 18008KT M00/M05 A3023 RMK A01 T10041048  RH  072%=      5-min Rain = 0
KMNS 201120Z 17008KT M00/M05 A3022 RMK A01 T10031048  RH  072%=      5-min Rain = 0
KMNS 201125Z 17008KT M00/M05 A3022 RMK A01 T10021048  RH  071%=      5-min Rain = 0
KMNS 201130Z 18008KT M00/M05 A3022 RMK A01 T10031049  RH  072%=      5-min Rain = 0
KMNS 201135Z 18008KT M00/M05 A3022 RMK A01 T10041048  RH  072%=      5-min Rain = 0
KMNS 201140Z 18008KT M01/M05 A3022 RMK A01 T10061049  RH  073%=      5-min Rain = 0
KMNS 201145Z 18008KT M01/M05 A3022 RMK A01 T10071049  RH  074%=      5-min Rain = 0
KMNS 201150Z 18008KT M01/M05 A3021 RMK A01 T10081048  RH  074%=      5-min Rain = 0
KMNS 201155Z 18007KT M01/M05 A3021 RMK A01 T10091049  RH  075%=      5-min Rain = 0
KMNS 201200Z 18007KT M01/M05 A3021 RMK A01 T10101049  RH  075%=      5-min Rain = 0
KMNS 201205Z 18008KT M01/M05 A3021 RMK A01 T10101048  RH  075%=      5-min Rain = 0
KMNS 201210Z 19008KT M01/M05 A3021 RMK A01 T10101048  RH  076%=      5-min Rain = 0
KMNS 201215Z 19008KT M01/M05 A3021 RMK A01 T10121049  RH  076%=      5-min Rain = 0
KMNS 201220Z 19008KT M01/M05 A3021 RMK A01 T10131049  RH  077%=      5-min Rain = 0
KMNS 201225Z 18008KT M01/M05 A3021 RMK A01 T10141049  RH  077%=      5-min Rain = 0
KMNS 201230Z 18007KT M01/M05 A3021 RMK A01 T10131048  RH  077%=      5-min Rain = 0
KMNS 201235Z 19008KT M01/M05 A3021 RMK A01 T10131049  RH  077%=      5-min Rain = 0
KMNS 201240Z 19008KT M01/M05 A3021 RMK A01 T10131049  RH  077%=      5-min Rain = 0
KMNS 201245Z 18008KT M01/M05 A3021 RMK A01 T10131049  RH  077%=      5-min Rain = 0
KMNS 201250Z 18009KT M01/M05 A3021 RMK A01 T10121049  RH  077%=      5-min Rain = 0
KMNS 201255Z 18009KT M01/M05 A3021 RMK A01 T10131049  RH  077%=      5-min Rain = 0
KMNS 201300Z 19009KT M02/M05 A3021 RMK A01 T10151050  RH  077%=      5-min Rain = 0
KMNS 201305Z 18009KT M01/M05 A3021 RMK A01 T10141049  RH  078%=      5-min Rain = 0
KMNS 201310Z 19010KT M01/M05 A3021 RMK A01 T10141049  RH  077%=      5-min Rain = 0
KMNS 201315Z 19010KT M02/M05 A3021 RMK A01 T10151049  RH  078%=      5-min Rain = 0
KMNS 201320Z 19010KT M01/M05 A3022 RMK A01 T10131048  RH  077%=      5-min Rain = 0
KMNS 201325Z 19009KT M01/M05 A3022 RMK A01 T10141049  RH  077%=      5-min Rain = 0
KMNS 201330Z 18010KT M01/M05 A3022 RMK A01 T10131048  RH  077%=      5-min Rain = 0
KMNS 201335Z 18010KT M01/M05 A3021 RMK A01 T10111048  RH  077%=      5-min Rain = 0
KMNS 201340Z 18009KT M01/M05 A3021 RMK A01 T10131049  RH  077%=      5-min Rain = 0
KMNS 201345Z 18010KT M01/M05 A3021 RMK A01 T10131048  RH  077%=      5-min Rain = 0
KMNS 201350Z 18010KT M01/M05 A3022 RMK A01 T10121048  RH  077%=      5-min Rain = 0
KMNS 201355Z 18010KT M01/M05 A3022 RMK A01 T10131049  RH  077%=      5-min Rain = 0
KMNS 201400Z 19011KT M01/M05 A3022 RMK A01 T10131048  RH  077%=      5-min Rain = 0
KMNS 201405Z 19010KT M01/M05 A3022 RMK A01 T10131048  RH  077%=      5-min Rain = 0
KMNS 201410Z 18010KT M01/M05 A3021 RMK A01 T10101046  RH  077%=      5-min Rain = 0
KMNS 201415Z 19011KT M01/M05 A3021 RMK A01 T10091046  RH  076%=      5-min Rain = 0
KMNS 201420Z 19011KT M01/M05 A3022 RMK A01 T10081045  RH  076%=      5-min Rain = 0
KMNS 201425Z 19010KT M01/M05 A3022 RMK A01 T10061045  RH  075%=      5-min Rain = 0
KMNS 201430Z 19010KT M01/M04 A3022 RMK A01 T10051044  RH  075%=      5-min Rain = 0
KMNS 201435Z 19011KT M00/M04 A3022 RMK A01 T10031043  RH  075%=      5-min Rain = 0
KMNS 201440Z 19010KT M00/M04 A3022 RMK A01 T10011042  RH  074%=      5-min Rain = 0
KMNS 201445Z 19011KT 00/M04 A3022 RMK A01 T00021040  RH  074%=      5-min Rain = 0
KMNS 201450Z 19011KT 00/M04 A3022 RMK A01 T00031040  RH  073%=      5-min Rain = 0
KMNS 201455Z 19011KT 00/M04 A3022 RMK A01 T00031040  RH  073%=      5-min Rain = 0
KMNS 201500Z 19011KT 00/M04 A3022 RMK A01 T00041039  RH  073%=      5-min Rain = 0
KMNS 201505Z 19011KT 01/M04 A3022 RMK A01 T00051039  RH  073%=      5-min Rain = 0
KMNS 201510Z 19011KT 01/M04 A3022 RMK A01 T00081037  RH  072%=      5-min Rain = 0
KMNS 201515Z 19011KT 01/M04 A3022 RMK A01 T00131035  RH  071%=      5-min Rain = 0
KMNS 201520Z 19012KT 02/M03 A3022 RMK A01 T00171033  RH  070%=      5-min Rain = 0
KMNS 201525Z 19013KT 02/M03 A3022 RMK A01 T00201034  RH  068%=      5-min Rain = 0
KMNS 201530Z 19012KT 02/M03 A3021 RMK A01 T00231032  RH  067%=      5-min Rain = 0
KMNS 201535Z 19011KT 03/M03 A3021 RMK A01 T00261032  RH  066%=      5-min Rain = 0
KMNS 201540Z 20010KT 03/M03 A3021 RMK A01 T00301030  RH  065%=      5-min Rain = 0
KMNS 201545Z 19011KT 03/M03 A3021 RMK A01 T00341029  RH  063%=      5-min Rain = 0
KMNS 201550Z 20011KT 04/M03 A3021 RMK A01 T00381030  RH  061%=      5-min Rain = 0
KMNS 201555Z 20011KT 04/M03 A3021 RMK A01 T00431028  RH  060%=      5-min Rain = 0
KMNS 201600Z 20011KT 05/M03 A3021 RMK A01 T00471029  RH  058%=      5-min Rain = 0
KMNS 201605Z 20010KT 05/M03 A3021 RMK A01 T00521028  RH  056%=      5-min Rain = 0
KMNS 201610Z 21011KT 06/M03 A302 RMK A01 T00561030  RH  054%=      5-min Rain = 0
KMNS 201615Z 21012KT 06/M03 A3021 RMK A01 T00601034  RH  051%=      5-min Rain = 0
KMNS 201620Z 21011KT 06/M03 A3021 RMK A01 T00641033  RH  050%=      5-min Rain = 0
KMNS 201625Z 21011KT 07/M03 A3021 RMK A01 T00691033  RH  048%=      5-min Rain = 0
KMNS 201630Z 21011KT 07/M04 A3021 RMK A01 T00711036  RH  047%=      5-min Rain = 0
KMNS 201635Z 21011KT 07/M04 A3022 RMK A01 T00731035  RH  046%=      5-min Rain = 0
KMNS 201640Z 21009KT 08/M03 A3021 RMK A01 T00781033  RH  046%=      5-min Rain = 0
KMNS 201645Z 21010KT 08/M03 A3021 RMK A01 T00841034  RH  043%=      5-min Rain = 0
KMNS 201650Z 21010KT 09/M04 A3021 RMK A01 T00871038  RH  041%=      5-min Rain = 0
KMNS 201655Z 21011KT 09/M04 A3021 RMK A01 T00891041  RH  040%=      5-min Rain = 0
KMNS 201700Z 21011KT 09/M04 A3021 RMK A01 T00941040  RH  039%=      5-min Rain = 0
KMNS 201705Z 21011KT 10/M04 A3021 RMK A01 T00951040  RH  039%=      5-min Rain = 0
KMNS 201710Z 21010KT 10/M04 A302 RMK A01 T00951040  RH  039%=      5-min Rain = 0
KMNS 201715Z 21010KT 10/M04 A302 RMK A01 T00981039  RH  038%=      5-min Rain = 0
KMNS 201720Z 21010KT 10/M04 A302 RMK A01 T01011038  RH  037%=      5-min Rain = 0
KMNS 201725Z 22009KT 11/M04 A302 RMK A01 T01071039  RH  036%=      5-min Rain = 0
KMNS 201730Z 22009KT 11/M04 A302 RMK A01 T01111041  RH  034%=      5-min Rain = 0
KMNS 201735Z 23010KT 11/M04 A302 RMK A01 T01141042  RH  033%=      5-min Rain = 0
KMNS 201740Z 23011KT 12/M05 A302 RMK A01 T01151047  RH  032%=      5-min Rain = 0
KMNS 201745Z 23010KT 12/M05 A302 RMK A01 T01181045  RH  032%=      5-min Rain = 0
KMNS 201750Z 23012KT 12/M05 A3019 RMK A01 T01191046  RH  031%=      5-min Rain = 0
KMNS 201755Z 23011KT 12/M05 A3019 RMK A01 T01211047  RH  031%=      5-min Rain = 0
KMNS 201800Z 24011KT 13/M05 A3019 RMK A01 T01281048  RH  029%=      5-min Rain = 0
KMNS 201805Z 23011KT 13/M05 A3018 RMK A01 T01301051  RH  028%=      5-min Rain = 0
KMNS 201810Z 24011KT 13/M05 A3018 RMK A01 T01341051  RH  027%=      5-min Rain = 0
KMNS 201815Z 23010KT 14/M05 A3018 RMK A01 T01401051  RH  026%=      5-min Rain = 0
KMNS 201820Z 24010KT 14/M05 A3017 RMK A01 T01421054  RH  025%=      5-min Rain = 0
KMNS 201825Z 24013G19KT 15/M06 A3017 RMK A01 T01491058  RH  024%=      5-min Rain = 0
KMNS 201830Z 24013KT 15/M06 A3017 RMK A01 T01511061  RH  023%=      5-min Rain = 0
KMNS 201835Z 23014G19KT 15/M06 A3016 RMK A01 T01501060  RH  023%=      5-min Rain = 0
KMNS 201840Z 23014G21KT 15/M06 A3016 RMK A01 T01531058  RH  023%=      5-min Rain = 0
KMNS 201845Z 25017G22KT 16/M06 A3015 RMK A01 T01551063  RH  022%=      5-min Rain = 0
KMNS 201850Z 24013KT 16/M06 A3015 RMK A01 T01581060  RH  022%=      5-min Rain = 0
KMNS 201855Z 23014G21KT 16/M06 A3014 RMK A01 T01621060  RH  021%=      5-min Rain = 0
KMNS 201900Z 24016G22KT 16/M07 A3014 RMK A01 T01641065  RH  020%=      5-min Rain = 0
KMNS 201905Z 25017G24KT 16/M07 A3013 RMK A01 T01641065  RH  020%=      5-min Rain = 0
KMNS 201910Z 24015KT 17/M06 A3013 RMK A01 T01681064  RH  020%=      5-min Rain = 0
KMNS 201915Z 24017G23KT 17/M07 A3012 RMK A01 T01681065  RH  020%=      5-min Rain = 0
KMNS 201920Z 24017KT 17/M07 A3012 RMK A01 T01691065  RH  020%=      5-min Rain = 0
KMNS 201925Z 25017G24KT 17/M07 A3012 RMK A01 T01671065  RH  020%=      5-min Rain = 0
KMNS 201930Z 25017KT 17/M07 A3011 RMK A01 T01671065  RH  020%=      5-min Rain = 0
KMNS 201935Z 25016G21KT 17/M06 A3011 RMK A01 T01711063  RH  020%=      5-min Rain = 0
KMNS 201940Z 25016G25KT 17/M06 A3011 RMK A01 T01741062  RH  019%=      5-min Rain = 0
KMNS 201945Z 26017KT 17/M06 A301 RMK A01 T01711064  RH  020%=      5-min Rain = 0
KMNS 201950Z 26016G22KT 17/M06 A301 RMK A01 T01711063  RH  020%=      5-min Rain = 0
KMNS 201955Z 26017G22KT 17/M06 A301 RMK A01 T01711064  RH  019%=      5-min Rain = 0
KMNS 202000Z 26014G19KT 18/M06 A301 RMK A01 T01761063  RH  019%=      5-min Rain = 0
KMNS 202005Z 25015G20KT 18/M07 A3009 RMK A01 T01781065  RH  019%=      5-min Rain = 0
KMNS 202010Z 25016KT 18/M07 A3009 RMK A01 T01781068  RH  018%=      5-min Rain = 0
KMNS 202015Z 25014KT 18/M07 A3009 RMK A01 T01831068  RH  018%=      5-min Rain = 0
KMNS 202020Z 23014G19KT 19/M07 A3008 RMK A01 T01861070  RH  017%=      5-min Rain = 0
KMNS 202025Z 22013KT 18/M08 A3008 RMK A01 T01841075  RH  016%=      5-min Rain = 0
KMNS 202030Z 22013G21KT 18/M08 A3008 RMK A01 T01811079  RH  016%=      5-min Rain = 0
KMNS 202035Z 23015KT 18/M08 A3007 RMK A01 T01811081  RH  016%=      5-min Rain = 0
KMNS 202040Z 23015KT 18/M09 A3007 RMK A01 T01831085  RH  015%=      5-min Rain = 0
KMNS 202045Z 23012G19KT 18/M09 A3007 RMK A01 T01841087  RH  015%=      5-min Rain = 0
KMNS 202050Z 23013KT 19/M09 A3007 RMK A01 T01861086  RH  015%=      5-min Rain = 0
KMNS 202055Z 22014G19KT 19/M09 A3006 RMK A01 T01871086  RH  015%=      5-min Rain = 0
KMNS 202100Z 23010G17KT 19/M09 A3006 RMK A01 T01901085  RH  015%=      5-min Rain = 0
KMNS 202105Z 23013G18KT 19/M09 A3006 RMK A01 T01901087  RH  014%=      5-min Rain = 0
KMNS 202110Z 23014KT 19/M09 A3006 RMK A01 T01881088  RH  015%=      5-min Rain = 0
KMNS 202115Z 23012KT 19/M09 A3006 RMK A01 T01901085  RH  015%=      5-min Rain = 0
KMNS 202120Z 22012G19KT 19/M09 A3005 RMK A01 T01941085  RH  014%=      5-min Rain = 0
KMNS 202125Z 22012KT 19/M09 A3005 RMK A01 T01921086  RH  014%=      5-min Rain = 0
KMNS 202130Z 23012KT 20/M08 A3005 RMK A01 T01961084  RH  014%=      5-min Rain = 0
KMNS 202135Z 24013KT 20/M08 A3005 RMK A01 T01971084  RH  014%=      5-min Rain = 0
KMNS 202140Z 24015G21KT 20/M09 A3005 RMK A01 T01961085  RH  014%=      5-min Rain = 0
KMNS 202145Z 23012KT 20/M09 A3005 RMK A01 T01971085  RH  014%=      5-min Rain = 0
KMNS 202150Z 24012G18KT 20/M08 A3005 RMK A01 T02001084  RH  014%=      5-min Rain = 0
KMNS 202155Z 24010G17KT 20/M08 A3005 RMK A01 T01991084  RH  014%=      5-min Rain = 0
KMNS 202200Z 24012G18KT 20/M08 A3005 RMK A01 T02011083  RH  014%=      5-min Rain = 0
KMNS 202205Z 23013KT 20/M08 A3004 RMK A01 T01971079  RH  015%=      5-min Rain = 0
KMNS 202210Z 23011KT 19/M08 A3005 RMK A01 T01931077  RH  015%=      5-min Rain = 0
KMNS 202215Z 24009KT 19/M08 A3005 RMK A01 T01901075  RH  016%=      5-min Rain = 0
KMNS 202220Z 24011KT 19/M07 A3005 RMK A01 T01911074  RH  016%=      5-min Rain = 0
KMNS 202225Z 24010KT 19/M07 A3005 RMK A01 T01891073  RH  016%=      5-min Rain = 0
KMNS 202230Z 24009KT 19/M07 A3005 RMK A01 T01901074  RH  016%=      5-min Rain = 0
KMNS 202235Z 23009KT 19/M07 A3005 RMK A01 T01881073  RH  016%=      5-min Rain = 0
KMNS 202240Z 23008KT 19/M07 A3005 RMK A01 T01861072  RH  017%=      5-min Rain = 0
KMNS 202245Z 23009KT 18/M07 A3005 RMK A01 T01841072  RH  017%=      5-min Rain = 0
KMNS 202250Z 23009KT 18/M07 A3005 RMK A01 T01801072  RH  017%=      5-min Rain = 0
KMNS 202255Z 22010KT 18/M07 A3005 RMK A01 T01771072  RH  018%=      5-min Rain = 0
KMNS 202300Z 22009KT 18/M07 A3005 RMK A01 T01761072  RH  018%=      5-min Rain = 0
KMNS 202305Z 23008KT 18/M07 A3004 RMK A01 T01771070  RH  018%=      5-min Rain = 0
KMNS 202310Z 23009KT 18/M07 A3004 RMK A01 T01771069  RH  018%=      5-min Rain = 0
KMNS 202315Z 23009KT 17/M07 A3004 RMK A01 T01731069  RH  018%=      5-min Rain = 0
KMNS 202320Z 23009KT 17/M07 A3004 RMK A01 T01711069  RH  019%=      5-min Rain = 0
KMNS 202325Z 23008KT 17/M07 A3004 RMK A01 T01701066  RH  019%=      5-min Rain = 0
KMNS 202330Z 22009KT 17/M07 A3004 RMK A01 T01711065  RH  019%=      5-min Rain = 0
KMNS 202335Z 22008KT 17/M06 A3004 RMK A01 T01681063  RH  020%=      5-min Rain = 0
KMNS 202340Z 22008KT 16/M06 A3004 RMK A01 T01641063  RH  021%=      5-min Rain = 0
KMNS 202345Z 23007KT 16/M06 A3004 RMK A01 T01611064  RH  021%=      5-min Rain = 0
KMNS 202350Z 23008KT 16/M06 A3003 RMK A01 T01591064  RH  021%=      5-min Rain = 0
KMNS 202355Z 23008KT 15/M07 A3003 RMK A01 T01541065  RH  022%=      5-min Rain = 0
KMNS 210000Z 22007KT 15/M06 A3003 RMK A01 T01471064  RH  023%=      5-min Rain = 0
KMNS 210005Z 21008KT 14/M06 A3003 RMK A01 T01361060  RH  025%=      5-min Rain = 0
KMNS 210010Z 21008KT 13/M06 A3003 RMK A01 T01341058  RH  026%=      5-min Rain = 0
KMNS 210015Z 21008KT 13/M06 A3003 RMK A01 T01301058  RH  027%=      5-min Rain = 0
KMNS 210020Z 21008KT 13/M06 A3003 RMK A01 T01291058  RH  027%=      5-min Rain = 0
KMNS 210025Z 21008KT 13/M06 A3003 RMK A01 T01281058  RH  027%=      5-min Rain = 0
KMNS 210030Z 21008KT 13/M06 A3003 RMK A01 T01261059  RH  027%=      5-min Rain = 0
KMNS 210035Z 20006KT 12/M06 A3003 RMK A01 T01161058  RH  029%=      5-min Rain = 0
KMNS 210040Z 20006KT 11/M06 A3003 RMK A01 T01061059  RH  031%=      5-min Rain = 0
KMNS 210045Z 18005KT 10/M06 A3003 RMK A01 T01011058  RH  032%=      5-min Rain = 0
KMNS 210050Z 18007KT 10/M06 A3003 RMK A01 T00971057  RH  033%=      5-min Rain = 0
KMNS 210055Z 19008KT 09/M06 A3003 RMK A01 T00941056  RH  034%=      5-min Rain = 0
KMNS 210100Z 19009KT 09/M06 A3003 RMK A01 T00901055  RH  035%=      5-min Rain = 0
KMNS 210105Z 19008KT 09/M06 A3003 RMK A01 T00911057  RH  035%=      5-min Rain = 0
KMNS 210110Z 19008KT 09/M06 A3003 RMK A01 T00891058  RH  035%=      5-min Rain = 0
KMNS 210115Z 19008KT 09/M06 A3003 RMK A01 T00861058  RH  035%=      5-min Rain = 0
KMNS 210120Z 19009KT 09/M06 A3003 RMK A01 T00871057  RH  036%=      5-min Rain = 0
KMNS 210125Z 19009KT 09/M06 A3003 RMK A01 T00861057  RH  036%=      5-min Rain = 0
KMNS 210130Z 19010KT 08/M06 A3003 RMK A01 T00831057  RH  037%=      5-min Rain = 0
KMNS 210135Z 20010KT 08/M06 A3003 RMK A01 T00811057  RH  037%=      5-min Rain = 0
KMNS 210140Z 20010KT 08/M06 A3002 RMK A01 T00801058  RH  037%=      5-min Rain = 0
KMNS 210145Z 20009KT 08/M06 A3002 RMK A01 T00801058  RH  037%=      5-min Rain = 0
KMNS 210150Z 20010KT 09/M06 A3002 RMK A01 T00881057  RH  035%=      5-min Rain = 0
KMNS 210155Z 20011KT 10/M06 A3002 RMK A01 T00961059  RH  033%=      5-min Rain = 0
KMNS 210200Z 21011KT 10/M06 A3002 RMK A01 T00981061  RH  032%=      5-min Rain = 0
KMNS 210205Z 21011KT 10/M06 A3002 RMK A01 T00981062  RH  032%=      5-min Rain = 0
KMNS 210210Z 20010KT 10/M06 A3001 RMK A01 T00981062  RH  032%=      5-min Rain = 0
KMNS 210215Z 21010KT 10/M06 A3001 RMK A01 T00971061  RH  032%=      5-min Rain = 0
KMNS 210220Z 21011KT 09/M06 A3001 RMK A01 T00941061  RH  033%=      5-min Rain = 0
KMNS 210225Z 20010KT 09/M06 A3001 RMK A01 T00901060  RH  034%=      5-min Rain = 0
KMNS 210230Z 20009KT 09/M06 A3001 RMK A01 T00891059  RH  035%=      5-min Rain = 0
KMNS 210235Z 20009KT 08/M06 A3001 RMK A01 T00811058  RH  037%=      5-min Rain = 0
KMNS 210240Z 20011G16KT 09/M06 A3001 RMK A01 T00871060  RH  035%=      5-min Rain = 0
KMNS 210245Z 20012KT 10/M06 A3001 RMK A01 T00951064  RH  032%=      5-min Rain = 0
KMNS 210250Z 20011KT 10/M07 A3001 RMK A01 T00961065  RH  032%=      5-min Rain = 0
KMNS 210255Z 20013KT 10/M07 A3001 RMK A01 T00951065  RH  032%=      5-min Rain = 0
KMNS 210300Z 20011KT 09/M07 A30 RMK A01 T00921065  RH  032%=      5-min Rain = 0
KMNS 210305Z 20010KT 08/M06 A30 RMK A01 T00831063  RH  035%=      5-min Rain = 0
KMNS 210310Z 20010KT 08/M06 A30 RMK A01 T00831062  RH  035%=      5-min Rain = 0
KMNS 210315Z 20010KT 08/M06 A2999 RMK A01 T00811062  RH  036%=      5-min Rain = 0
KMNS 210320Z 20009KT 08/M06 A30 RMK A01 T00751061  RH  038%=      5-min Rain = 0
KMNS 210325Z 20009KT 07/M06 A2999 RMK A01 T00671060  RH  040%=      5-min Rain = 0
KMNS 210330Z 20011KT 07/M06 A30 RMK A01 T00681059  RH  040%=      5-min Rain = 0
KMNS 210335Z 21011KT 07/M06 A30 RMK A01 T00731059  RH  039%=      5-min Rain = 0
KMNS 210340Z 20011KT 07/M06 A2999 RMK A01 T00741060  RH  038%=      5-min Rain = 0
KMNS 210345Z 20010KT 07/M06 A30 RMK A01 T00691060  RH  039%=      5-min Rain = 0
KMNS 210350Z 21010KT 07/M06 A30 RMK A01 T00651060  RH  040%=      5-min Rain = 0
KMNS 210355Z 21010KT 06/M06 A30 RMK A01 T00641061  RH  040%=      5-min Rain = 0
KMNS 210400Z 21011KT 07/M06 A30 RMK A01 T00691063  RH  039%=      5-min Rain = 0
KMNS 210405Z 21011KT 07/M06 A30 RMK A01 T00741064  RH  037%=      5-min Rain = 0
KMNS 210410Z 21011KT 08/M07 A30 RMK A01 T00751066  RH  036%=      5-min Rain = 0
KMNS 210415Z 21011KT 07/M07 A30 RMK A01 T00741066  RH  036%=      5-min Rain = 0
KMNS 210420Z 21011KT 07/M07 A30 RMK A01 T00721066  RH  037%=      5-min Rain = 0
KMNS 210425Z 21011KT 07/M07 A30 RMK A01 T00701067  RH  037%=      5-min Rain = 0
KMNS 210430Z 21011KT 07/M07 A30 RMK A01 T00721067  RH  037%=      5-min Rain = 0
KMNS 210435Z 21011KT 07/M07 A30 RMK A01 T00711067  RH  037%=      5-min Rain = 0
KMNS 210440Z 21010KT 07/M07 A30 RMK A01 T00691067  RH  037%=      5-min Rain = 0
KMNS 210445Z 21011KT 07/M07 A30 RMK A01 T00681067  RH  037%=      5-min Rain = 0
KMNS 210450Z 20011KT 07/M07 A30 RMK A01 T00681067  RH  037%=      5-min Rain = 0
KMNS 210455Z 20011KT 07/M07 A30 RMK A01 T00681068  RH  037%=      5-min Rain = 0
KMNS 210500Z 20010KT 07/M07 A30 RMK A01 T00661068  RH  038%=      5-min Rain = 0
KMNS 210505Z 20010KT 06/M07 A30 RMK A01 T00631067  RH  039%=      5-min Rain = 0
KMNS 210510Z 20011KT 06/M07 A30 RMK A01 T00581066  RH  040%=      5-min Rain = 0
KMNS 210515Z 19010KT 05/M07 A30 RMK A01 T00541066  RH  042%=      5-min Rain = 0
KMNS 210520Z 19010KT 05/M07 A30 RMK A01 T00521066  RH  042%=      5-min Rain = 0
KMNS 210525Z 20010KT 05/M07 A30 RMK A01 T00511066  RH  042%=      5-min Rain = 0
KMNS 210530Z 20010KT 05/M07 A30 RMK A01 T00481066  RH  043%=      5-min Rain = 0
KMNS 210535Z 20010KT 05/M07 A30 RMK A01 T00481066  RH  043%=      5-min Rain = 0
KMNS 210540Z 20010KT 05/M07 A2999 RMK A01 T00471066  RH  044%=      5-min Rain = 0
KMNS 210545Z 20010KT 05/M07 A2999 RMK A01 T00471066  RH  044%=      5-min Rain = 0
KMNS 210550Z 20011KT 05/M07 A2999 RMK A01 T00481066  RH  043%=      5-min Rain = 0
KMNS 210555Z 20009KT 05/M07 A2999 RMK A01 T00491067  RH  043%=      5-min Rain = 0

Page generated in 0.0089 seconds.